Time;durP1;ratioP1;P1;durP2;ratioP2;P2;SDS_P1;SDS_P2;PMS_P1;PMS_P2;Temp;Humidity;BMP_temperature;BMP_pressure;BME280_temperature;BME280_humidity;BME280_pressure;Samples;Min_cycle;Max_cycle;Signal;HPM_P1;HPM_P2
2022/12/03 00:01:32;;;;;;;5.55;4.13;;;;;;;16.56;52.06;96662.56;5114735;28;20134;-35
2022/12/03 00:03:57;;;;;;;5.75;3.85;;;;;;;16.53;52.02;96656.03;5114848;28;20027;-35
2022/12/03 00:06:23;;;;;;;6.35;4.28;;;;;;;16.55;51.99;96661.06;5112002;28;20019;-34
2022/12/03 00:08:49;;;;;;;7.28;4.05;;;;;;;16.52;52.06;96645.53;5114846;28;20024;-33
2022/12/03 00:11:14;;;;;;;7.53;4.35;;;;;;;16.56;52.05;96646.16;5113655;28;20113;-34
2022/12/03 00:13:40;;;;;;;6.43;4.15;;;;;;;16.56;51.89;96651.63;5114743;28;20088;-34
2022/12/03 00:16:05;;;;;;;5.65;3.78;;;;;;;16.55;51.89;96644.63;5114646;28;20486;-34
2022/12/03 00:18:31;;;;;;;5.78;4.00;;;;;;;16.56;52.09;96646.16;5114861;28;20412;-33
2022/12/03 00:20:56;;;;;;;5.90;3.97;;;;;;;16.61;51.69;96653.72;5114677;28;20015;-36
2022/12/03 00:23:22;;;;;;;6.47;4.20;;;;;;;16.57;51.75;96652.38;5114552;28;20486;-35
2022/12/03 00:25:47;;;;;;;6.32;3.75;;;;;;;16.52;51.98;96648.28;5114522;28;20383;-34
2022/12/03 00:28:12;;;;;;;5.43;4.07;;;;;;;16.55;51.88;96644.63;5114171;28;20050;-34
2022/12/03 00:30:38;;;;;;;5.97;3.90;;;;;;;16.52;52.04;96634.59;5114396;28;20016;-34
2022/12/03 00:33:03;;;;;;;6.03;3.88;;;;;;;16.53;51.87;96625.16;5114053;27;20495;-35
2022/12/03 00:35:32;;;;;;;5.22;3.45;;;;;;;16.53;51.96;96622.44;5114490;28;20027;-35
2022/12/03 00:37:57;;;;;;;6.53;3.92;;;;;;;16.53;51.98;96625.91;5114324;28;20048;-34
2022/12/03 00:40:23;;;;;;;6.10;3.80;;;;;;;16.56;51.97;96626.97;5114457;28;20378;-33
2022/12/03 00:42:48;;;;;;;5.30;3.63;;;;;;;16.51;52.04;96620.13;5113963;28;20110;-34
2022/12/03 00:45:14;;;;;;;6.47;3.67;;;;;;;16.52;52.13;96634.59;5114311;28;20356;-34
2022/12/03 00:47:39;;;;;;;4.90;3.30;;;;;;;16.54;51.79;96615.72;5112113;28;20536;-34
2022/12/03 00:50:05;;;;;;;5.32;3.45;;;;;;;16.59;51.72;96628.03;5113490;28;20513;-34
2022/12/03 00:52:31;;;;;;;4.57;3.35;;;;;;;16.51;51.95;96627.59;5114076;28;20367;-34
2022/12/03 00:54:56;;;;;;;7.82;3.50;;;;;;;16.45;52.06;96638.41;5114043;28;20031;-34
2022/12/03 00:57:22;;;;;;;4.00;2.80;;;;;;;16.42;52.14;96630.38;5114000;28;20019;-35
2022/12/03 00:59:47;;;;;;;5.30;3.10;;;;;;;16.48;51.96;96625.78;5112947;28;20027;-35
2022/12/03 01:02:13;;;;;;;3.53;2.78;;;;;;;16.52;51.78;96618.94;5113605;28;20495;-34
2022/12/03 01:04:38;;;;;;;3.78;2.80;;;;;;;16.45;51.95;96619.22;5113614;28;20034;-34
2022/12/03 01:07:04;;;;;;;4.22;2.90;;;;;;;16.52;51.84;96624.41;5113973;28;20532;-37
2022/12/03 01:09:29;;;;;;;5.25;3.00;;;;;;;16.44;51.98;96627.94;5113808;28;20022;-34
2022/12/03 01:11:54;;;;;;;4.05;3.00;;;;;;;16.50;51.92;96618.63;5113783;28;20024;-34
2022/12/03 01:14:20;;;;;;;3.80;3.00;;;;;;;16.49;51.94;96632.78;5113836;28;20468;-34
2022/12/03 01:16:46;;;;;;;3.90;2.78;;;;;;;16.47;51.94;96638.69;5113813;28;20051;-34
2022/12/03 01:19:16;;;;;;;4.72;2.97;;;;;;;16.48;52.02;96633.97;5093618;28;20020;-34
2022/12/03 01:21:43;;;;;;;4.18;2.75;;;;;;;16.46;52.03;96628.22;5092271;28;20040;-35
2022/12/03 01:24:09;;;;;;;4.25;2.83;;;;;;;16.50;51.95;96631.56;5092976;28;20024;-34
2022/12/03 01:26:34;;;;;;;4.18;3.13;;;;;;;16.50;52.00;96634.28;5093334;28;20024;-34
2022/12/03 01:28:59;;;;;;;3.65;2.85;;;;;;;16.47;51.77;96644.19;5093238;28;20375;-34
2022/12/03 01:34:09;;;;;;;4.25;2.80;;;;;;;16.39;52.10;96637.50;5093245;28;20105;-37
2022/12/03 01:36:34;;;;;;;3.60;2.65;;;;;;;16.45;51.85;96640.38;5093350;28;20497;-34
2022/12/03 01:39:01;;;;;;;3.47;2.85;;;;;;;16.45;51.97;96634.91;5093186;28;20016;-35
2022/12/03 01:41:27;;;;;;;3.75;2.60;;;;;;;16.43;52.09;96635.38;5093168;28;20021;-35
2022/12/03 01:43:54;;;;;;;4.63;3.03;;;;;;;16.42;51.91;96644.81;5092684;28;20488;-36
2022/12/03 01:46:30;;;;;;;4.53;3.30;;;;;;;16.45;51.78;96629.41;5093151;28;20085;-34
2022/12/03 01:48:55;;;;;;;5.03;3.17;;;;;;;16.42;51.97;96622.16;5093139;28;20054;-34
2022/12/03 01:51:21;;;;;;;4.25;3.08;;;;;;;16.45;52.02;96623.94;5093311;28;20056;-34
2022/12/03 01:53:47;;;;;;;4.00;3.05;;;;;;;16.38;51.94;96629.75;5093013;28;20051;-37
2022/12/03 01:56:14;;;;;;;3.97;3.10;;;;;;;16.34;52.04;96618.97;5108576;28;20028;-34
2022/12/03 01:58:41;;;;;;;4.63;3.22;;;;;;;16.35;52.00;96615.00;5113566;28;20463;-34
2022/12/03 02:01:12;;;;;;;4.50;2.90;;;;;;;16.37;51.97;96609.84;5116227;28;20403;-34
2022/12/03 02:03:38;;;;;;;4.25;3.10;;;;;;;16.36;52.25;96615.75;5098990;28;20026;-34
2022/12/03 02:06:08;;;;;;;4.28;3.35;;;;;;;16.33;52.21;96611.97;5117199;28;20114;-35
2022/12/03 02:08:36;;;;;;;3.90;3.10;;;;;;;16.33;52.14;96605.72;5117370;28;20050;-34
2022/12/03 02:11:24;;;;;;;3.40;2.75;;;;;;;16.34;51.85;96594.31;5117061;28;20107;-34
2022/12/03 02:13:54;;;;;;;3.38;2.60;;;;;;;16.25;52.34;96607.28;5117118;28;20016;-34
2022/12/03 02:16:20;;;;;;;4.30;3.40;;;;;;;16.25;52.40;96599.81;5117051;28;20019;-35
2022/12/03 02:18:45;;;;;;;4.97;3.35;;;;;;;16.27;52.31;96594.66;5117037;28;20046;-34
2022/12/03 02:21:15;;;;;;;4.75;2.95;;;;;;;16.26;52.37;96595.13;5116555;28;20024;-34
2022/12/03 02:23:53;;;;;;;3.88;3.33;;;;;;;16.09;52.39;96594.69;5116960;28;20020;-36
2022/12/03 02:26:18;;;;;;;4.50;2.90;;;;;;;16.25;52.24;96588.13;5116960;28;20030;-35
2022/12/03 02:28:44;;;;;;;3.65;2.97;;;;;;;16.19;52.38;96584.50;5116897;28;20374;-34
2022/12/03 02:31:10;;;;;;;3.30;2.88;;;;;;;16.29;52.18;96588.72;5116892;28;20020;-35
2022/12/03 02:33:35;;;;;;;3.75;3.35;;;;;;;16.25;52.23;96585.38;5116890;28;20023;-35
2022/12/03 02:36:01;;;;;;;3.15;2.38;;;;;;;16.21;52.45;96580.06;5116831;28;20020;-34
2022/12/03 02:38:29;;;;;;;5.40;3.35;;;;;;;16.19;52.31;96582.53;5116506;28;20490;-34
2022/12/03 02:41:01;;;;;;;4.05;3.20;;;;;;;16.25;52.21;96588.13;5116417;28;20095;-34
2022/12/03 02:43:26;;;;;;;3.95;3.13;;;;;;;16.21;52.30;96593.75;5116545;28;20081;-33
2022/12/03 02:45:55;;;;;;;4.28;3.13;;;;;;;16.25;52.18;96588.13;5116596;28;20417;-34
2022/12/03 02:48:37;;;;;;;3.92;3.10;;;;;;;16.26;52.40;96576.72;5116454;28;20386;-35
2022/12/03 02:51:08;;;;;;;4.18;3.33;;;;;;;16.25;52.03;96577.16;5116414;28;20019;-34
2022/12/03 02:53:41;;;;;;;3.92;3.05;;;;;;;16.17;52.55;96574.78;5116458;27;20023;-34
2022/12/03 02:56:08;;;;;;;3.88;2.95;;;;;;;16.12;52.48;96575.38;5116043;28;20482;-34
2022/12/03 02:58:34;;;;;;;3.83;2.90;;;;;;;16.06;52.70;96577.22;5115615;28;20039;-34
2022/12/03 03:01:02;;;;;;;4.25;3.60;;;;;;;16.16;52.35;96567.00;5115606;28;20399;-34
2022/12/03 03:03:29;;;;;;;4.72;3.35;;;;;;;16.20;52.23;96566.84;5116287;28;20033;-35
2022/12/03 03:05:55;;;;;;;5.32;3.70;;;;;;;16.14;52.37;96575.69;5116166;28;20023;-34
2022/12/03 03:08:22;;;;;;;4.10;3.45;;;;;;;16.12;52.26;96569.16;5116543;27;20087;-34
2022/12/03 03:10:48;;;;;;;4.82;3.33;;;;;;;16.05;52.51;96564.00;5115495;28;20024;-33
2022/12/03 03:13:16;;;;;;;3.92;3.22;;;;;;;16.03;52.55;96564.47;5116049;28;20040;-36
2022/12/03 03:15:42;;;;;;;4.25;3.13;;;;;;;16.11;52.39;96556.69;5115706;28;20056;-34
2022/12/03 03:18:09;;;;;;;4.35;3.20;;;;;;;16.04;52.68;96565.22;5115918;28;20032;-34
2022/12/03 03:20:36;;;;;;;4.43;3.30;;;;;;;16.17;52.38;96572.03;5115770;28;20384;-33
2022/12/03 03:23:14;;;;;;;4.32;3.00;;;;;;;16.15;52.48;96562.75;5115700;27;20020;-34
2022/12/03 03:25:42;;;;;;;5.68;3.53;;;;;;;16.12;52.58;96563.66;5115662;28;20034;-38
2022/12/03 03:28:08;;;;;;;4.15;3.00;;;;;;;16.10;52.82;96561.41;5115759;28;20035;-34
2022/12/03 03:30:36;;;;;;;4.18;3.15;;;;;;;16.08;52.57;96557.59;5115321;28;20028;-36
2022/12/03 03:33:01;;;;;;;4.05;2.90;;;;;;;16.14;52.68;96550.28;5115554;28;20055;-35
2022/12/03 03:35:27;;;;;;;3.60;3.20;;;;;;;16.20;52.30;96548.44;5115504;28;20063;-34
2022/12/03 03:37:55;;;;;;;4.28;2.90;;;;;;;16.13;52.41;96544.06;5115414;28;20032;-34
2022/12/03 03:40:21;;;;;;;3.72;2.70;;;;;;;16.22;52.24;96539.78;5115429;28;20019;-35
2022/12/03 03:42:47;;;;;;;3.78;2.95;;;;;;;16.15;52.29;96541.63;5115333;28;20069;-35
2022/12/03 03:45:14;;;;;;;3.83;2.72;;;;;;;16.15;52.31;96532.66;5115349;28;20053;-34
2022/12/03 03:47:40;;;;;;;3.65;2.80;;;;;;;16.15;52.34;96525.22;5115143;28;20025;-34
2022/12/03 03:50:07;;;;;;;3.25;2.75;;;;;;;16.13;52.31;96533.13;5115024;28;20019;-33
2022/12/03 03:52:33;;;;;;;3.80;2.90;;;;;;;16.16;52.47;96524.00;5115037;28;20438;-34
2022/12/03 03:54:59;;;;;;;3.72;2.92;;;;;;;16.19;52.49;96522.31;5111969;28;20432;-34
2022/12/03 03:57:25;;;;;;;3.53;2.53;;;;;;;16.21;52.38;96519.09;5115062;28;20066;-33
2022/12/03 03:59:51;;;;;;;3.33;2.80;;;;;;;16.17;52.30;96506.38;5115257;28;20110;-34
2022/12/03 04:02:23;;;;;;;3.05;2.67;;;;;;;16.14;52.64;96504.53;5114940;28;20052;-34
2022/12/03 04:04:50;;;;;;;2.90;2.40;;;;;;;16.11;52.67;96505.47;5115219;28;20019;-33
2022/12/03 04:07:16;;;;;;;3.60;2.50;;;;;;;16.09;52.64;96507.88;5114779;28;20024;-34
2022/12/03 04:09:41;;;;;;;3.15;2.58;;;;;;;16.10;52.67;96508.66;5114920;28;20023;-33
2022/12/03 04:14:51;;;;;;;3.20;2.13;;;;;;;16.02;52.82;96505.50;5114794;28;20492;-33
2022/12/03 04:17:17;;;;;;;3.47;2.25;;;;;;;16.06;52.67;96505.34;5114825;28;20055;-33
2022/12/03 04:19:42;;;;;;;3.70;2.47;;;;;;;16.14;52.58;96510.00;5114656;28;20031;-33
2022/12/03 04:28:47;;;;;;;3.10;2.20;;;;;;;16.07;52.74;96512.31;5114937;28;20038;-34
2022/12/03 04:30:23;;;;;;;2.78;2.10;;;;;;;16.14;52.40;96512.00;5072616;28;20085;-34
2022/12/03 04:36:10;;;;;;;2.35;1.63;;;;;;;16.03;52.82;96523.41;5113695;28;20036;-36
2022/12/03 04:38:35;;;;;;;3.25;1.70;;;;;;;16.09;52.50;96516.09;5114458;28;20387;-33
2022/12/03 04:41:02;;;;;;;2.05;1.70;;;;;;;16.07;52.60;96518.53;5114026;28;20029;-34
2022/12/03 04:44:31;;;;;;;2.50;1.58;;;;;;;15.97;52.85;96519.00;5113349;28;20056;-33
2022/12/03 04:46:22;;;;;;;1.80;1.40;;;;;;;16.04;52.32;96519.47;5114219;28;20034;-32
2022/12/03 04:48:47;;;;;;;1.98;1.40;;;;;;;16.09;52.48;96520.81;5114430;28;20016;-33
2022/12/03 04:51:13;;;;;;;1.38;1.23;;;;;;;16.10;52.33;96516.84;5105900;28;20384;-33
2022/12/03 04:53:38;;;;;;;2.20;1.40;;;;;;;16.08;52.29;96514.56;5093926;28;20379;-34
2022/12/03 04:56:04;;;;;;;1.25;1.08;;;;;;;16.05;52.50;96517.50;5093654;28;20046;-33
2022/12/03 04:58:29;;;;;;;1.40;1.00;;;;;;;16.04;52.43;96524.94;5106404;28;20031;-33
2022/12/03 05:00:55;;;;;;;1.75;0.93;;;;;;;16.04;52.44;96530.41;5113559;28;20414;-34
2022/12/03 05:03:21;;;;;;;1.35;0.88;;;;;;;16.06;52.38;96540.91;5113941;28;20019;-33
2022/12/03 05:05:46;;;;;;;1.40;0.90;;;;;;;16.02;52.35;96538.31;5113850;28;20026;-33
2022/12/03 05:08:12;;;;;;;1.40;0.90;;;;;;;15.96;52.67;96540.13;5113965;28;20371;-34
2022/12/03 05:10:37;;;;;;;1.83;0.90;;;;;;;16.02;52.53;96562.19;5114009;28;20024;-33
2022/12/03 05:13:03;;;;;;;1.35;0.90;;;;;;;16.05;52.44;96564.75;5113811;28;20023;-33
2022/12/03 05:15:28;;;;;;;3.45;0.90;;;;;;;16.07;52.35;96562.31;5112674;28;20026;-34
2022/12/03 05:17:54;;;;;;;2.05;1.00;;;;;;;16.11;52.34;96562.16;5113675;28;20019;-34
2022/12/03 05:23:03;;;;;;;2.30;0.80;;;;;;;16.11;52.27;96568.38;5113861;28;20411;-33
2022/12/03 05:25:28;;;;;;;2.75;1.10;;;;;;;16.02;52.53;96579.34;5113840;28;20019;-33
2022/12/03 05:27:54;;;;;;;2.60;0.98;;;;;;;15.97;52.53;96574.47;5113596;28;20450;-33
2022/12/03 05:30:19;;;;;;;1.65;0.80;;;;;;;15.95;52.73;96582.38;5113921;28;20099;-33
2022/12/03 05:32:45;;;;;;;1.25;0.82;;;;;;;15.99;52.54;96583.00;5112395;28;20096;-33
2022/12/03 05:35:10;;;;;;;1.70;0.63;;;;;;;16.10;52.25;96574.31;5117777;28;20030;-33
2022/12/03 05:37:36;;;;;;;1.33;0.85;;;;;;;16.14;52.08;96575.69;5117775;28;20054;-33
2022/12/03 05:40:02;;;;;;;1.40;0.70;;;;;;;16.07;52.06;96575.97;5117798;28;20027;-34
2022/12/03 05:45:11;;;;;;;1.13;0.73;;;;;;;16.00;52.36;96584.50;5117661;28;20041;-33
2022/12/03 05:47:37;;;;;;;1.25;0.70;;;;;;;16.04;52.29;96585.13;5117709;28;20019;-33
2022/12/03 05:50:02;;;;;;;1.67;1.00;;;;;;;16.07;52.14;96588.94;5100495;28;20020;-35
2022/12/03 05:52:28;;;;;;;1.70;0.90;;;;;;;16.09;52.22;96584.50;5095672;28;20058;-34
2022/12/03 05:54:53;;;;;;;2.35;1.08;;;;;;;16.02;52.35;96587.56;5097020;28;20024;-33
2022/12/03 05:57:19;;;;;;;0.93;0.70;;;;;;;16.03;52.15;96586.34;5097019;28;20024;-34
2022/12/03 05:59:44;;;;;;;1.95;0.73;;;;;;;16.02;52.11;96581.31;5097316;28;20356;-33
2022/12/03 06:02:16;;;;;;;1.20;0.70;;;;;;;16.06;52.35;96574.50;5095347;28;20043;-33
2022/12/03 06:04:41;;;;;;;1.60;0.90;;;;;;;15.98;52.47;96586.19;5095684;28;20035;-33
2022/12/03 06:07:07;;;;;;;1.00;0.52;;;;;;;16.01;52.39;96586.03;5096907;28;20024;-34
2022/12/03 06:09:32;;;;;;;1.77;0.60;;;;;;;16.03;52.38;96594.56;5096798;28;20054;-33
2022/12/03 06:11:57;;;;;;;1.10;0.55;;;;;;;16.04;52.31;96593.34;5096534;28;20024;-33
2022/12/03 06:14:23;;;;;;;1.42;0.70;;;;;;;16.00;52.60;96597.44;5096608;28;20027;-33
2022/12/03 06:16:48;;;;;;;1.10;0.75;;;;;;;16.01;52.35;96594.25;5096686;28;20399;-33
2022/12/03 06:19:14;;;;;;;1.08;0.65;;;;;;;15.96;52.44;96583.91;5096569;28;20446;-33
2022/12/03 06:21:39;;;;;;;1.77;0.77;;;;;;;15.98;52.67;96597.13;5096586;28;20372;-34
2022/12/03 06:24:05;;;;;;;1.40;0.65;;;;;;;16.09;52.19;96591.94;5096752;28;20055;-34
2022/12/03 06:26:30;;;;;;;0.73;0.50;;;;;;;16.02;52.30;96584.81;5096454;28;20369;-33
2022/12/03 06:28:56;;;;;;;0.80;0.50;;;;;;;16.07;52.14;96600.59;5096644;28;20460;-34
2022/12/03 06:31:21;;;;;;;1.48;0.75;;;;;;;16.09;52.02;96605.63;5096533;28;20482;-33
2022/12/03 06:33:47;;;;;;;1.77;0.65;;;;;;;16.03;52.44;96600.03;5096230;28;20498;-33
2022/12/03 06:36:12;;;;;;;1.42;0.73;;;;;;;16.01;52.16;96596.97;5096424;28;20050;-33
2022/12/03 06:38:38;;;;;;;2.55;0.70;;;;;;;15.98;52.44;96594.38;5096453;28;20072;-35
2022/12/03 06:41:03;;;;;;;1.42;0.70;;;;;;;15.99;52.34;96591.19;5096159;28;20024;-33
2022/12/03 06:43:29;;;;;;;1.00;0.60;;;;;;;16.00;52.10;96581.78;5096209;28;20032;-34
2022/12/03 06:45:55;;;;;;;1.48;0.73;;;;;;;16.00;52.32;96589.22;5095031;28;20051;-33
2022/12/03 06:48:21;;;;;;;1.45;0.60;;;;;;;16.01;52.37;96588.00;5096086;28;20734;-33
2022/12/03 06:50:46;;;;;;;1.33;0.60;;;;;;;16.02;52.16;96595.75;5096004;28;20054;-34
2022/12/03 06:53:14;;;;;;;2.40;0.70;;;;;;;15.96;52.42;96594.09;5095930;28;20023;-33
2022/12/03 06:55:40;;;;;;;1.20;0.50;;;;;;;16.00;52.24;96584.50;5104201;28;20039;-34
2022/12/03 06:58:05;;;;;;;3.25;0.90;;;;;;;16.01;52.29;96599.72;5116402;28;20050;-34
2022/12/03 07:00:31;;;;;;;1.77;0.80;;;;;;;16.04;52.00;96598.03;5115384;28;20048;-33
2022/12/03 07:02:56;;;;;;;1.77;0.80;;;;;;;16.00;52.14;96606.41;5116133;28;20019;-35
2022/12/03 07:05:21;;;;;;;2.53;0.70;;;;;;;16.08;52.04;96617.78;5095630;28;20023;-34
2022/12/03 07:07:50;;;;;;;2.28;0.98;;;;;;;16.01;52.23;96624.34;5089509;27;20028;-33
2022/12/03 07:10:17;;;;;;;1.63;0.90;;;;;;;16.07;51.79;96630.69;5087945;28;20361;-35
2022/12/03 07:12:42;;;;;;;1.75;0.82;;;;;;;16.12;51.81;96623.88;5088857;28;20028;-33
2022/12/03 07:15:08;;;;;;;2.33;1.13;;;;;;;16.09;52.00;96635.72;5088891;27;20042;-34
2022/12/03 07:17:34;;;;;;;2.72;0.95;;;;;;;15.99;52.23;96632.22;5088535;28;20376;-33
2022/12/03 07:19:59;;;;;;;2.17;1.00;;;;;;;16.10;51.79;96637.25;5088624;28;20027;-33
2022/12/03 07:22:25;;;;;;;2.08;0.80;;;;;;;16.04;52.04;96639.06;5088281;28;20081;-33
2022/12/03 07:24:50;;;;;;;3.17;0.80;;;;;;;15.97;52.15;96640.13;5114160;28;20186;-33
2022/12/03 07:27:16;;;;;;;1.65;0.80;;;;;;;16.05;51.80;96646.84;5115316;28;20028;-34
2022/12/03 07:29:41;;;;;;;3.05;0.85;;;;;;;16.02;52.08;96646.97;5115842;27;20032;-34
2022/12/03 07:32:07;;;;;;;1.55;0.80;;;;;;;15.98;52.20;96647.13;5115634;28;20016;-34
2022/12/03 07:34:33;;;;;;;1.73;0.70;;;;;;;15.99;52.21;96643.19;5115543;28;20371;-35
2022/12/03 07:36:58;;;;;;;1.70;0.70;;;;;;;15.99;52.14;96648.66;5115622;28;20030;-34
2022/12/03 07:39:24;;;;;;;2.13;0.90;;;;;;;15.91;52.50;96652.91;5115711;28;20114;-33
2022/12/03 07:41:49;;;;;;;1.50;0.60;;;;;;;15.99;52.02;96656.09;5115717;28;20026;-34
2022/12/03 07:44:15;;;;;;;0.93;0.50;;;;;;;16.03;51.98;96649.25;5115446;28;20535;-33
2022/12/03 07:46:41;;;;;;;1.00;0.60;;;;;;;15.95;52.22;96653.50;5103342;28;20023;-33
2022/12/03 07:49:07;;;;;;;1.30;0.50;;;;;;;15.97;52.35;96653.81;5093356;28;20024;-34
2022/12/03 07:51:32;;;;;;;1.17;0.50;;;;;;;16.10;51.90;96651.69;5097338;28;20032;-34
2022/12/03 07:53:58;;;;;;;1.13;0.45;;;;;;;16.01;52.21;96662.63;5113253;28;20027;-34
2022/12/03 07:56:23;;;;;;;0.95;0.70;;;;;;;15.99;52.17;96662.31;5112820;28;20035;-33
2022/12/03 07:58:49;;;;;;;2.83;0.80;;;;;;;15.96;52.34;96654.25;5112865;28;20024;-33
2022/12/03 08:01:14;;;;;;;1.50;0.70;;;;;;;15.88;52.66;96662.03;5112721;28;20775;-33
2022/12/03 08:03:41;;;;;;;1.25;0.50;;;;;;;15.98;52.40;96657.31;5112423;28;20104;-33
2022/12/03 08:06:07;;;;;;;1.30;0.50;;;;;;;16.08;52.10;96661.56;5111751;28;20110;-33
2022/12/03 08:08:33;;;;;;;0.90;0.45;;;;;;;16.03;52.33;96662.19;5112436;28;20527;-33
2022/12/03 08:11:00;;;;;;;1.30;0.90;;;;;;;16.12;52.01;96665.66;5112002;28;20034;-33
2022/12/03 08:13:26;;;;;;;0.85;0.40;;;;;;;16.04;52.36;96669.16;5112946;28;20049;-34
2022/12/03 08:15:51;;;;;;;0.95;0.50;;;;;;;16.06;52.00;96672.97;5112904;28;20031;-33
2022/12/03 08:18:20;;;;;;;1.00;0.60;;;;;;;15.99;52.41;96680.72;5112488;28;20032;-33
2022/12/03 08:20:47;;;;;;;1.25;0.63;;;;;;;16.03;52.35;96673.88;5112615;28;20028;-34
2022/12/03 08:23:22;;;;;;;1.13;0.60;;;;;;;16.00;52.51;96672.06;5112442;28;20155;-35
2022/12/03 08:25:49;;;;;;;1.33;0.60;;;;;;;15.95;52.68;96686.31;5112477;28;20034;-33
2022/12/03 08:28:17;;;;;;;0.80;0.68;;;;;;;16.02;52.20;96699.72;5112627;28;20103;-33
2022/12/03 08:30:46;;;;;;;0.85;0.70;;;;;;;16.05;52.27;96709.75;5112413;28;20023;-33
2022/12/03 08:33:17;;;;;;;1.77;0.60;;;;;;;16.02;52.50;96716.13;5111951;28;20032;-33
2022/12/03 08:35:48;;;;;;;1.23;0.63;;;;;;;16.02;52.38;96718.09;5111759;28;20080;-33
2022/12/03 08:38:14;;;;;;;1.80;0.65;;;;;;;15.96;52.85;96736.31;5112369;28;20036;-34
2022/12/03 08:40:42;;;;;;;2.10;1.20;;;;;;;16.01;52.81;96736.50;5104040;28;20024;-33
2022/12/03 08:43:19;;;;;;;1.75;1.00;;;;;;;15.90;52.96;96738.91;5091730;28;20020;-34
2022/12/03 08:45:46;;;;;;;1.88;1.10;;;;;;;16.00;52.64;96729.50;5091519;28;20032;-33
2022/12/03 08:48:22;;;;;;;1.40;1.00;;;;;;;16.08;52.53;96732.69;5089581;28;20036;-33
2022/12/03 08:50:47;;;;;;;1.45;1.02;;;;;;;16.09;52.56;96740.44;5091878;28;20109;-35
2022/12/03 08:53:12;;;;;;;1.90;1.30;;;;;;;16.04;52.67;96732.09;5091603;28;20062;-33
2022/12/03 08:55:44;;;;;;;1.63;1.00;;;;;;;15.63;53.57;96741.59;5110493;28;20023;-38
2022/12/03 08:58:38;;;;;;;4.45;1.38;;;;;;;14.68;57.57;96728.41;5111614;28;20157;-32
2022/12/03 09:01:07;;;;;;;5.38;2.38;;;;;;;14.91;56.81;96731.84;5111511;28;20093;-33
2022/12/03 09:03:33;;;;;;;3.92;2.50;;;;;;;15.29;55.49;96735.06;5112329;28;20088;-34
2022/12/03 09:05:59;;;;;;;6.00;2.83;;;;;;;15.63;54.20;96725.19;5111880;28;20031;-33
2022/12/03 09:08:24;;;;;;;6.50;3.05;;;;;;;15.76;53.91;96725.81;5111626;28;20110;-33
2022/12/03 09:10:49;;;;;;;4.72;2.80;;;;;;;15.82;53.21;96722.03;5111754;28;20376;-35
2022/12/03 09:13:15;;;;;;;6.10;3.13;;;;;;;15.85;53.23;96731.28;5111323;28;20106;-35
2022/12/03 09:15:40;;;;;;;3.60;2.45;;;;;;;15.87;53.12;96728.09;5111600;28;20092;-34
2022/12/03 09:18:06;;;;;;;5.13;2.50;;;;;;;15.94;52.73;96730.56;5111759;28;20039;-35
2022/12/03 09:20:31;;;;;;;3.42;2.30;;;;;;;15.99;52.74;96730.72;5111806;28;20057;-34
2022/12/03 09:22:57;;;;;;;4.10;2.20;;;;;;;15.94;52.94;96733.31;5111448;28;20103;-34
2022/12/03 09:25:22;;;;;;;4.75;2.53;;;;;;;15.93;52.62;96731.78;5111712;28;20069;-36
2022/12/03 09:27:48;;;;;;;4.40;2.28;;;;;;;15.95;52.55;96735.56;5111518;28;20141;-35
2022/12/03 09:30:15;;;;;;;2.83;1.77;;;;;;;15.98;52.38;96742.88;5113712;28;20047;-36
2022/12/03 09:32:40;;;;;;;4.07;2.03;;;;;;;16.00;52.42;96739.69;5113567;28;20038;-34
2022/12/03 09:35:06;;;;;;;2.72;1.75;;;;;;;16.01;52.39;96733.75;5113557;28;20027;-36
2022/12/03 09:37:32;;;;;;;3.05;1.85;;;;;;;15.97;52.30;96733.13;5113870;28;20049;-35
2022/12/03 09:39:57;;;;;;;2.97;1.75;;;;;;;15.98;52.49;96729.19;5114025;28;20107;-37
2022/12/03 09:42:24;;;;;;;4.40;1.77;;;;;;;15.98;52.33;96715.50;5113375;28;20050;-34
2022/12/03 09:44:49;;;;;;;3.58;1.90;;;;;;;15.95;52.47;96715.69;5114076;28;20027;-35
2022/12/03 09:47:15;;;;;;;3.47;1.75;;;;;;;15.99;52.38;96711.56;5096494;28;20053;-34
2022/12/03 09:49:41;;;;;;;1.98;1.40;;;;;;;16.01;52.21;96705.63;5093335;28;20020;-34
2022/12/03 09:52:10;;;;;;;2.67;1.45;;;;;;;16.03;52.36;96695.78;5093424;28;20356;-34
2022/12/03 09:54:37;;;;;;;3.05;1.80;;;;;;;16.05;52.03;96685.13;5093152;28;20055;-34
2022/12/03 09:57:03;;;;;;;3.05;1.80;;;;;;;15.99;52.36;96694.38;5093058;28;20412;-34
2022/12/03 09:59:30;;;;;;;2.47;1.50;;;;;;;16.00;52.15;96684.97;5093187;28;20161;-34
2022/12/03 10:01:56;;;;;;;2.65;1.88;;;;;;;16.00;52.00;96696.66;5092899;28;20455;-37
2022/12/03 10:04:22;;;;;;;3.40;1.80;;;;;;;16.01;52.12;96687.25;5092981;28;20124;-35
2022/12/03 10:06:48;;;;;;;2.58;1.98;;;;;;;16.02;52.21;96691.50;5093109;28;20064;-34
2022/12/03 10:09:21;;;;;;;2.30;1.90;;;;;;;16.02;52.12;96683.31;5092915;28;20063;-34
2022/12/03 10:11:46;;;;;;;3.05;2.13;;;;;;;15.97;52.57;96694.06;5093200;28;20085;-34
2022/12/03 10:14:16;;;;;;;2.83;1.92;;;;;;;15.89;52.86;96698.34;5092976;28;20070;-36
2022/12/03 10:16:42;;;;;;;3.20;2.22;;;;;;;15.95;52.25;96691.78;5092896;28;20027;-34
2022/12/03 10:19:18;;;;;;;2.53;1.73;;;;;;;15.97;52.17;96677.66;5092880;28;20051;-34
2022/12/03 10:21:44;;;;;;;2.08;1.60;;;;;;;15.97;52.43;96674.94;5095763;28;20028;-34
2022/12/03 10:24:17;;;;;;;2.88;1.70;;;;;;;15.94;52.52;96675.88;5096157;28;20499;-36
2022/12/03 10:26:44;;;;;;;2.88;1.60;;;;;;;15.94;52.63;96668.41;5096032;28;20118;-35
2022/12/03 10:29:21;;;;;;;2.45;1.67;;;;;;;16.01;52.35;96668.09;5096486;28;20102;-34
2022/12/03 10:32:00;;;;;;;2.55;1.88;;;;;;;16.01;52.38;96672.81;5096565;28;20016;-35
2022/12/03 10:34:34;;;;;;;3.47;2.15;;;;;;;15.91;52.45;96661.13;5096698;28;20028;-34
2022/12/03 10:37:21;;;;;;;2.42;1.70;;;;;;;16.00;52.33;96647.44;5096493;28;20028;-35
2022/12/03 10:39:58;;;;;;;2.28;1.52;;;;;;;15.97;52.47;96642.88;5096124;28;20038;-34
2022/12/03 10:42:30;;;;;;;3.25;1.60;;;;;;;15.98;52.23;96644.38;5096308;28;20027;-34
2022/12/03 10:45:15;;;;;;;2.67;1.60;;;;;;;16.01;52.29;96634.50;5096160;28;20030;-35
2022/12/03 10:47:42;;;;;;;2.45;2.05;;;;;;;15.99;52.28;96626.75;5096070;28;20086;-36
2022/12/03 10:50:18;;;;;;;3.17;2.00;;;;;;;15.93;52.57;96630.56;5095926;28;20024;-35
2022/12/03 10:52:45;;;;;;;3.33;1.88;;;;;;;15.81;53.11;96621.31;5095977;28;20038;-34
2022/12/03 10:55:14;;;;;;;1.83;1.30;;;;;;;15.95;52.46;96615.22;5095972;28;20054;-34
2022/12/03 10:57:40;;;;;;;2.00;1.50;;;;;;;15.99;52.41;96610.34;5095816;28;20095;-34
2022/12/03 11:00:07;;;;;;;2.55;1.23;;;;;;;15.92;52.57;96599.72;5111443;28;20041;-36
2022/12/03 11:02:32;;;;;;;2.28;1.50;;;;;;;15.97;52.62;96593.63;5116119;28;20057;-35
2022/12/03 11:04:58;;;;;;;1.92;1.42;;;;;;;15.97;52.37;96590.91;5116357;28;20027;-35
2022/12/03 11:07:24;;;;;;;2.45;1.63;;;;;;;15.92;52.66;96594.25;5116263;28;20080;-35
2022/12/03 11:09:57;;;;;;;2.50;1.50;;;;;;;15.98;52.47;96583.44;5116288;28;20023;-36
2022/12/03 11:12:28;;;;;;;2.25;1.60;;;;;;;15.99;52.39;96582.22;5116051;28;20080;-36
2022/12/03 11:14:53;;;;;;;1.75;1.42;;;;;;;15.97;52.23;96581.94;5115896;28;20406;-35
2022/12/03 11:17:45;;;;;;;2.28;1.90;;;;;;;15.98;52.48;96589.69;5115920;28;20028;-35
2022/12/03 11:20:10;;;;;;;2.15;1.50;;;;;;;15.91;52.71;96590.00;5115927;28;20025;-36
2022/12/03 11:22:48;;;;;;;2.75;1.83;;;;;;;16.00;52.44;96594.69;5115770;28;20027;-36
2022/12/03 11:25:25;;;;;;;2.17;1.77;;;;;;;16.01;52.52;96596.22;5115658;28;20024;-34
2022/12/03 11:28:12;;;;;;;2.88;1.58;;;;;;;15.94;53.00;96596.53;5114211;28;20120;-36
2022/12/03 11:31:03;;;;;;;2.63;1.77;;;;;;;15.87;52.91;96600.34;5113539;28;20049;-34
2022/12/03 11:33:33;;;;;;;2.67;1.85;;;;;;;15.92;52.79;96605.19;5115489;28;20015;-34
2022/12/03 11:36:01;;;;;;;3.45;2.53;;;;;;;15.98;52.57;96608.81;5115549;28;20028;-35
2022/12/03 11:38:36;;;;;;;3.90;2.50;;;;;;;15.88;52.83;96593.66;5115511;28;20053;-35
2022/12/03 11:41:22;;;;;;;3.78;2.55;;;;;;;15.93;52.61;96579.38;5104095;28;20023;-37
2022/12/03 11:43:56;;;;;;;3.38;2.67;;;;;;;15.82;52.98;96562.66;5093056;28;20028;-35
2022/12/03 11:46:39;;;;;;;4.65;2.88;;;;;;;15.92;52.82;96550.50;5100711;28;20112;-35
2022/12/03 11:49:19;;;;;;;3.13;2.80;;;;;;;15.97;52.54;96541.66;5110873;28;20420;-35
2022/12/03 11:51:45;;;;;;;3.88;2.75;;;;;;;15.84;53.16;96532.88;5113070;28;20451;-35
2022/12/03 11:54:14;;;;;;;4.00;2.63;;;;;;;15.96;52.67;96540.13;5113198;28;20034;-35
2022/12/03 11:56:44;;;;;;;2.63;2.40;;;;;;;15.86;52.97;96535.16;5110152;28;20031;-33